Midfield, TX (77458)

5:29 AM CST on February 13, 2016 (GMT -0600)
Danevang | | Change Station
CLOSE
Current Station
Personal Weather Station
Location: Bay City, TX
Elevation: 79 ft
Nearby Weather Stations
Active Advisory: Dense Fog Advisory

Elev 79 ft 29.06 °N, 96.14 °W | Updated 11 seconds ago

Fog
Fog
55.4 °F
Feels Like 55.4 °F
N
1.1
Wind Variable Wind from North
Gusts 3.0 mph

Today
High -- | Low -- °F
--% Chance of Precip.
Yesterday
High -- | Low -- °F
Precip. -- in
Pressure 30.29 in
Visibility 0.2 miles
Clouds
Dew Point 54 °F
Humidity 96%
Rainfall 0.00 in
Snow Depth Not available.
7:05 AM 6:13 PM
Waxing Crescent, 30% visible
METAR KPSX 131053Z AUTO 04005KT 1/4SM FG VV001 10/10 A3029 RMK AO2 SLP255 T01000100
Pressure 30.29 in
Visibility 0.2 miles
Clouds
Dew Point 54 °F
Humidity 96%
Rainfall 0.00 in
Snow Depth Not available.
7:05 AM 6:13 PM
Waxing Crescent, 30% visible
METAR KPSX 131053Z AUTO 04005KT 1/4SM FG VV001 10/10 A3029 RMK AO2 SLP255 T01000100

10-Day Weather Forecast

Almanac

Astronomy

Feb. 13, 2016 Rise Set
Actual Time
Civil Twilight
Nautical Twilight
Astronomical Twilight
Moon
Length of Visible Light
Length of Day
Tomorrow will be .
, % of the Moon is Illuminated

Today's Extremes

State Highs State Lows

Community

WunderPhotos

Upload Photos

1,892,541 photos uploaded!

WunderBlog® & News

Nearby

Air Quality

  Air Quality AQ Index Pollutant
Not available.

Snow Depth

Station Depth Elevation

Earthquake Activity

City Distance Mag. Time & Date
Minimum magnitude displayed is 2.5.

Coastal Water Temperatures

Place Temperature

Stations

Nearby Weather Stations

Station Location Temp. Windchill Dew Point Humidity Wind Precip. Elev Updated Type
                   

Watches & Warnings

Dense Fog Advisory
Issued: 11:47 PM CST Feb. 12, 2016 – National Weather Service

... Dense fog advisory in effect until 9 am CST Saturday...

The National Weather Service in Houston/Galveston has issued a
dense fog advisory... which is in effect until 9 am CST Saturday.

* Event... areas of dense fog with visibilities of one quarter mile
or less.

* Timing... through mid morning.

* Impact... driving will be hazardous in areas of dense fog.

Precautionary/preparedness actions...

A dense fog advisory means visibilities will frequently be
reduced to less than one quarter mile. If driving... slow down...
use your headlights... and leave plenty of distance ahead of you.